sensor_id;sensor_type;location;lat;lon;timestamp;P1;durP1;ratioP1;P2;durP2;ratioP2
47287;SDS011;33020;53.008;13.558;2023-07-30T00:00:01;4.90;;;3.92;;
47287;SDS011;33020;53.008;13.558;2023-07-30T00:02:28;4.80;;;4.30;;
47287;SDS011;33020;53.008;13.558;2023-07-30T00:04:55;5.10;;;3.65;;
47287;SDS011;33020;53.008;13.558;2023-07-30T00:07:22;5.03;;;3.80;;
47287;SDS011;33020;53.008;13.558;2023-07-30T00:09:49;4.28;;;3.58;;
47287;SDS011;33020;53.008;13.558;2023-07-30T00:12:15;4.32;;;3.60;;
47287;SDS011;33020;53.008;13.558;2023-07-30T00:14:42;5.60;;;4.18;;
47287;SDS011;33020;53.008;13.558;2023-07-30T00:17:09;4.53;;;4.13;;
47287;SDS011;33020;53.008;13.558;2023-07-30T00:19:36;5.88;;;4.25;;
47287;SDS011;33020;53.008;13.558;2023-07-30T00:22:03;6.53;;;4.07;;
47287;SDS011;33020;53.008;13.558;2023-07-30T00:24:30;4.28;;;3.88;;
47287;SDS011;33020;53.008;13.558;2023-07-30T00:26:56;5.90;;;4.05;;
47287;SDS011;33020;53.008;13.558;2023-07-30T00:29:23;4.65;;;4.20;;
47287;SDS011;33020;53.008;13.558;2023-07-30T00:31:50;4.35;;;3.85;;
47287;SDS011;33020;53.008;13.558;2023-07-30T00:34:16;5.88;;;4.15;;
47287;SDS011;33020;53.008;13.558;2023-07-30T00:36:43;4.38;;;3.97;;
47287;SDS011;33020;53.008;13.558;2023-07-30T00:39:10;5.00;;;4.22;;
47287;SDS011;33020;53.008;13.558;2023-07-30T00:41:37;4.28;;;3.88;;
47287;SDS011;33020;53.008;13.558;2023-07-30T00:44:05;4.72;;;4.22;;
47287;SDS011;33020;53.008;13.558;2023-07-30T00:46:32;4.03;;;3.55;;
47287;SDS011;33020;53.008;13.558;2023-07-30T00:48:59;4.68;;;3.85;;
47287;SDS011;33020;53.008;13.558;2023-07-30T00:51:25;4.78;;;4.28;;
47287;SDS011;33020;53.008;13.558;2023-07-30T00:53:52;4.13;;;3.72;;
47287;SDS011;33020;53.008;13.558;2023-07-30T00:56:19;4.65;;;4.20;;
47287;SDS011;33020;53.008;13.558;2023-07-30T00:58:46;4.70;;;3.67;;
47287;SDS011;33020;53.008;13.558;2023-07-30T01:01:15;4.40;;;3.85;;
47287;SDS011;33020;53.008;13.558;2023-07-30T01:03:41;4.95;;;3.80;;
47287;SDS011;33020;53.008;13.558;2023-07-30T01:06:08;4.72;;;4.00;;
47287;SDS011;33020;53.008;13.558;2023-07-30T01:08:35;4.70;;;3.80;;
47287;SDS011;33020;53.008;13.558;2023-07-30T01:11:02;4.90;;;4.00;;
47287;SDS011;33020;53.008;13.558;2023-07-30T01:13:30;4.63;;;3.80;;
47287;SDS011;33020;53.008;13.558;2023-07-30T01:15:57;4.65;;;3.78;;
47287;SDS011;33020;53.008;13.558;2023-07-30T01:18:23;5.15;;;3.63;;
47287;SDS011;33020;53.008;13.558;2023-07-30T01:20:53;4.47;;;3.20;;
47287;SDS011;33020;53.008;13.558;2023-07-30T01:23:20;5.07;;;3.50;;
47287;SDS011;33020;53.008;13.558;2023-07-30T01:25:47;3.90;;;3.58;;
47287;SDS011;33020;53.008;13.558;2023-07-30T01:28:16;4.70;;;3.60;;
47287;SDS011;33020;53.008;13.558;2023-07-30T01:30:44;4.45;;;3.55;;
47287;SDS011;33020;53.008;13.558;2023-07-30T01:33:11;4.28;;;3.20;;
47287;SDS011;33020;53.008;13.558;2023-07-30T01:35:38;4.65;;;3.92;;
47287;SDS011;33020;53.008;13.558;2023-07-30T01:38:08;3.95;;;3.25;;
47287;SDS011;33020;53.008;13.558;2023-07-30T01:40:35;4.07;;;3.35;;
47287;SDS011;33020;53.008;13.558;2023-07-30T01:43:02;4.55;;;3.72;;
47287;SDS011;33020;53.008;13.558;2023-07-30T01:45:29;5.22;;;3.65;;
47287;SDS011;33020;53.008;13.558;2023-07-30T01:47:55;3.55;;;3.25;;
47287;SDS011;33020;53.008;13.558;2023-07-30T01:50:22;3.60;;;3.17;;
47287;SDS011;33020;53.008;13.558;2023-07-30T01:52:50;3.70;;;3.10;;
47287;SDS011;33020;53.008;13.558;2023-07-30T01:55:17;4.00;;;3.55;;
47287;SDS011;33020;53.008;13.558;2023-07-30T01:57:44;5.20;;;3.15;;
47287;SDS011;33020;53.008;13.558;2023-07-30T02:00:10;4.45;;;3.35;;
47287;SDS011;33020;53.008;13.558;2023-07-30T02:02:37;3.88;;;3.17;;
47287;SDS011;33020;53.008;13.558;2023-07-30T02:05:04;4.00;;;3.03;;
47287;SDS011;33020;53.008;13.558;2023-07-30T02:07:31;5.55;;;3.53;;
47287;SDS011;33020;53.008;13.558;2023-07-30T02:09:58;3.13;;;2.83;;
47287;SDS011;33020;53.008;13.558;2023-07-30T02:12:25;5.03;;;3.60;;
47287;SDS011;33020;53.008;13.558;2023-07-30T02:14:51;6.85;;;4.25;;
47287;SDS011;33020;53.008;13.558;2023-07-30T02:17:18;3.10;;;2.80;;
47287;SDS011;33020;53.008;13.558;2023-07-30T02:19:45;4.40;;;3.75;;
47287;SDS011;33020;53.008;13.558;2023-07-30T02:22:12;4.63;;;3.97;;
47287;SDS011;33020;53.008;13.558;2023-07-30T02:24:38;3.35;;;3.03;;
47287;SDS011;33020;53.008;13.558;2023-07-30T02:27:05;6.95;;;3.83;;
47287;SDS011;33020;53.008;13.558;2023-07-30T02:29:33;3.70;;;3.40;;
47287;SDS011;33020;53.008;13.558;2023-07-30T02:32:00;4.65;;;3.65;;
47287;SDS011;33020;53.008;13.558;2023-07-30T02:34:26;4.80;;;3.45;;
47287;SDS011;33020;53.008;13.558;2023-07-30T02:36:53;5.20;;;3.25;;
47287;SDS011;33020;53.008;13.558;2023-07-30T02:39:20;4.28;;;3.42;;
47287;SDS011;33020;53.008;13.558;2023-07-30T02:41:47;4.93;;;3.40;;
47287;SDS011;33020;53.008;13.558;2023-07-30T02:44:14;5.50;;;3.45;;
47287;SDS011;33020;53.008;13.558;2023-07-30T02:46:40;4.32;;;3.30;;
47287;SDS011;33020;53.008;13.558;2023-07-30T02:49:07;3.63;;;3.33;;
47287;SDS011;33020;53.008;13.558;2023-07-30T02:51:35;3.88;;;3.47;;
47287;SDS011;33020;53.008;13.558;2023-07-30T02:54:06;5.63;;;3.65;;
47287;SDS011;33020;53.008;13.558;2023-07-30T02:56:33;3.70;;;3.33;;
47287;SDS011;33020;53.008;13.558;2023-07-30T02:59:00;4.47;;;3.55;;
47287;SDS011;33020;53.008;13.558;2023-07-30T03:01:27;5.03;;;3.92;;
47287;SDS011;33020;53.008;13.558;2023-07-30T03:03:54;4.00;;;3.33;;
47287;SDS011;33020;53.008;13.558;2023-07-30T03:06:21;4.50;;;3.55;;
47287;SDS011;33020;53.008;13.558;2023-07-30T03:08:48;5.45;;;3.40;;
47287;SDS011;33020;53.008;13.558;2023-07-30T03:11:15;5.18;;;3.90;;
47287;SDS011;33020;53.008;13.558;2023-07-30T03:13:41;4.68;;;3.60;;
47287;SDS011;33020;53.008;13.558;2023-07-30T03:16:08;4.30;;;3.38;;
47287;SDS011;33020;53.008;13.558;2023-07-30T03:18:35;4.45;;;3.90;;
47287;SDS011;33020;53.008;13.558;2023-07-30T03:21:02;3.80;;;3.40;;
47287;SDS011;33020;53.008;13.558;2023-07-30T03:23:30;4.25;;;3.38;;
47287;SDS011;33020;53.008;13.558;2023-07-30T03:25:57;5.55;;;3.25;;
47287;SDS011;33020;53.008;13.558;2023-07-30T03:28:24;7.57;;;3.90;;
47287;SDS011;33020;53.008;13.558;2023-07-30T03:30:51;4.90;;;3.45;;
47287;SDS011;33020;53.008;13.558;2023-07-30T03:33:17;4.85;;;3.85;;
47287;SDS011;33020;53.008;13.558;2023-07-30T03:35:44;8.75;;;3.60;;
47287;SDS011;33020;53.008;13.558;2023-07-30T03:38:11;5.03;;;3.60;;
47287;SDS011;33020;53.008;13.558;2023-07-30T03:40:38;4.40;;;3.03;;
47287;SDS011;33020;53.008;13.558;2023-07-30T03:43:04;4.57;;;3.53;;
47287;SDS011;33020;53.008;13.558;2023-07-30T03:45:31;6.53;;;3.95;;
47287;SDS011;33020;53.008;13.558;2023-07-30T03:47:59;6.45;;;3.78;;
47287;SDS011;33020;53.008;13.558;2023-07-30T03:50:26;5.45;;;3.65;;
47287;SDS011;33020;53.008;13.558;2023-07-30T03:52:53;4.43;;;3.90;;
47287;SDS011;33020;53.008;13.558;2023-07-30T03:55:19;4.68;;;4.22;;
47287;SDS011;33020;53.008;13.558;2023-07-30T03:57:46;5.70;;;4.15;;
47287;SDS011;33020;53.008;13.558;2023-07-30T04:00:13;5.57;;;3.60;;
47287;SDS011;33020;53.008;13.558;2023-07-30T04:02:40;4.80;;;3.72;;
47287;SDS011;33020;53.008;13.558;2023-07-30T04:05:07;5.43;;;3.97;;
47287;SDS011;33020;53.008;13.558;2023-07-30T04:07:34;4.75;;;3.55;;
47287;SDS011;33020;53.008;13.558;2023-07-30T04:10:02;4.90;;;3.85;;
47287;SDS011;33020;53.008;13.558;2023-07-30T04:12:29;7.60;;;3.55;;
47287;SDS011;33020;53.008;13.558;2023-07-30T04:14:56;4.28;;;3.88;;
47287;SDS011;33020;53.008;13.558;2023-07-30T04:17:22;4.68;;;3.20;;
47287;SDS011;33020;53.008;13.558;2023-07-30T04:19:49;3.63;;;3.10;;
47287;SDS011;33020;53.008;13.558;2023-07-30T04:22:16;4.03;;;3.63;;
47287;SDS011;33020;53.008;13.558;2023-07-30T04:24:43;4.45;;;3.78;;
47287;SDS011;33020;53.008;13.558;2023-07-30T04:27:10;8.23;;;4.93;;
47287;SDS011;33020;53.008;13.558;2023-07-30T04:29:36;4.00;;;3.60;;
47287;SDS011;33020;53.008;13.558;2023-07-30T04:32:03;5.03;;;3.80;;
47287;SDS011;33020;53.008;13.558;2023-07-30T04:34:30;3.88;;;3.47;;
47287;SDS011;33020;53.008;13.558;2023-07-30T04:36:57;4.00;;;3.15;;
47287;SDS011;33020;53.008;13.558;2023-07-30T04:39:24;3.95;;;3.38;;
47287;SDS011;33020;53.008;13.558;2023-07-30T04:41:50;5.65;;;3.80;;
47287;SDS011;33020;53.008;13.558;2023-07-30T04:44:17;4.05;;;3.58;;
47287;SDS011;33020;53.008;13.558;2023-07-30T04:46:44;4.35;;;3.28;;
47287;SDS011;33020;53.008;13.558;2023-07-30T04:49:11;4.35;;;3.40;;
47287;SDS011;33020;53.008;13.558;2023-07-30T04:51:37;5.43;;;3.40;;
47287;SDS011;33020;53.008;13.558;2023-07-30T04:54:05;4.97;;;3.80;;
47287;SDS011;33020;53.008;13.558;2023-07-30T04:56:32;5.65;;;3.60;;
47287;SDS011;33020;53.008;13.558;2023-07-30T04:58:59;5.15;;;4.20;;
47287;SDS011;33020;53.008;13.558;2023-07-30T05:01:26;4.72;;;4.22;;
47287;SDS011;33020;53.008;13.558;2023-07-30T05:03:52;4.57;;;4.18;;
47287;SDS011;33020;53.008;13.558;2023-07-30T05:06:19;7.53;;;4.32;;
47287;SDS011;33020;53.008;13.558;2023-07-30T05:08:46;5.05;;;4.47;;
47287;SDS011;33020;53.008;13.558;2023-07-30T05:11:13;6.50;;;4.53;;
47287;SDS011;33020;53.008;13.558;2023-07-30T05:13:40;5.30;;;4.45;;
47287;SDS011;33020;53.008;13.558;2023-07-30T05:16:07;6.40;;;4.70;;
47287;SDS011;33020;53.008;13.558;2023-07-30T05:18:33;5.28;;;4.32;;
47287;SDS011;33020;53.008;13.558;2023-07-30T05:21:00;6.10;;;4.50;;
47287;SDS011;33020;53.008;13.558;2023-07-30T05:23:27;5.18;;;4.60;;
47287;SDS011;33020;53.008;13.558;2023-07-30T05:25:54;6.28;;;5.03;;
47287;SDS011;33020;53.008;13.558;2023-07-30T05:28:21;6.40;;;5.07;;
47287;SDS011;33020;53.008;13.558;2023-07-30T05:30:47;9.07;;;4.80;;
47287;SDS011;33020;53.008;13.558;2023-07-30T05:33:14;5.63;;;5.00;;
47287;SDS011;33020;53.008;13.558;2023-07-30T05:35:42;5.05;;;4.55;;
47287;SDS011;33020;53.008;13.558;2023-07-30T05:38:09;5.97;;;4.72;;
47287;SDS011;33020;53.008;13.558;2023-07-30T05:40:36;5.28;;;4.55;;
47287;SDS011;33020;53.008;13.558;2023-07-30T05:43:05;4.68;;;4.15;;
47287;SDS011;33020;53.008;13.558;2023-07-30T05:45:33;6.32;;;4.10;;
47287;SDS011;33020;53.008;13.558;2023-07-30T05:48:00;3.47;;;3.17;;
47287;SDS011;33020;53.008;13.558;2023-07-30T05:50:27;4.15;;;3.38;;
47287;SDS011;33020;53.008;13.558;2023-07-30T05:52:53;4.13;;;3.72;;
47287;SDS011;33020;53.008;13.558;2023-07-30T05:55:20;4.47;;;3.90;;
47287;SDS011;33020;53.008;13.558;2023-07-30T05:57:47;5.30;;;4.10;;
47287;SDS011;33020;53.008;13.558;2023-07-30T06:00:13;4.18;;;3.33;;
47287;SDS011;33020;53.008;13.558;2023-07-30T06:02:40;4.18;;;3.78;;
47287;SDS011;33020;53.008;13.558;2023-07-30T06:05:07;4.05;;;3.20;;
47287;SDS011;33020;53.008;13.558;2023-07-30T06:07:34;4.07;;;3.63;;
47287;SDS011;33020;53.008;13.558;2023-07-30T06:10:02;3.33;;;3.03;;
47287;SDS011;33020;53.008;13.558;2023-07-30T06:12:29;4.47;;;3.35;;
47287;SDS011;33020;53.008;13.558;2023-07-30T06:14:55;5.05;;;3.40;;
47287;SDS011;33020;53.008;13.558;2023-07-30T06:17:22;4.35;;;3.00;;
47287;SDS011;33020;53.008;13.558;2023-07-30T06:19:50;5.40;;;3.20;;
47287;SDS011;33020;53.008;13.558;2023-07-30T06:22:17;3.80;;;3.20;;
47287;SDS011;33020;53.008;13.558;2023-07-30T06:24:43;3.10;;;2.80;;
47287;SDS011;33020;53.008;13.558;2023-07-30T06:27:10;3.25;;;2.95;;
47287;SDS011;33020;53.008;13.558;2023-07-30T06:29:38;4.00;;;3.05;;
47287;SDS011;33020;53.008;13.558;2023-07-30T06:32:05;3.95;;;2.83;;
47287;SDS011;33020;53.008;13.558;2023-07-30T06:34:32;5.22;;;3.28;;
47287;SDS011;33020;53.008;13.558;2023-07-30T06:36:59;3.13;;;2.83;;
47287;SDS011;33020;53.008;13.558;2023-07-30T06:39:26;4.65;;;2.70;;
47287;SDS011;33020;53.008;13.558;2023-07-30T06:41:53;2.75;;;2.50;;
47287;SDS011;33020;53.008;13.558;2023-07-30T06:44:19;2.95;;;2.50;;
47287;SDS011;33020;53.008;13.558;2023-07-30T06:46:46;3.75;;;2.50;;
47287;SDS011;33020;53.008;13.558;2023-07-30T06:49:13;3.33;;;2.70;;
47287;SDS011;33020;53.008;13.558;2023-07-30T06:51:40;3.85;;;2.60;;
47287;SDS011;33020;53.008;13.558;2023-07-30T06:54:07;3.15;;;2.53;;
47287;SDS011;33020;53.008;13.558;2023-07-30T06:56:34;4.38;;;2.92;;
47287;SDS011;33020;53.008;13.558;2023-07-30T06:59:01;3.20;;;2.83;;
47287;SDS011;33020;53.008;13.558;2023-07-30T07:01:28;3.15;;;2.70;;
47287;SDS011;33020;53.008;13.558;2023-07-30T07:03:55;3.47;;;2.80;;
47287;SDS011;33020;53.008;13.558;2023-07-30T07:06:22;3.15;;;2.70;;
47287;SDS011;33020;53.008;13.558;2023-07-30T07:08:50;3.33;;;3.03;;
47287;SDS011;33020;53.008;13.558;2023-07-30T07:11:17;2.95;;;2.67;;
47287;SDS011;33020;53.008;13.558;2023-07-30T07:13:44;3.30;;;3.00;;
47287;SDS011;33020;53.008;13.558;2023-07-30T07:16:10;3.28;;;2.97;;
47287;SDS011;33020;53.008;13.558;2023-07-30T07:18:37;3.40;;;3.03;;
47287;SDS011;33020;53.008;13.558;2023-07-30T07:21:04;3.33;;;2.85;;
47287;SDS011;33020;53.008;13.558;2023-07-30T07:23:31;6.15;;;3.42;;
47287;SDS011;33020;53.008;13.558;2023-07-30T07:25:57;3.33;;;2.70;;
47287;SDS011;33020;53.008;13.558;2023-07-30T07:28:24;5.20;;;3.20;;
47287;SDS011;33020;53.008;13.558;2023-07-30T07:30:51;3.90;;;3.50;;
47287;SDS011;33020;53.008;13.558;2023-07-30T07:33:18;3.63;;;3.13;;
47287;SDS011;33020;53.008;13.558;2023-07-30T07:35:45;3.90;;;3.00;;
47287;SDS011;33020;53.008;13.558;2023-07-30T07:38:12;3.40;;;2.95;;
47287;SDS011;33020;53.008;13.558;2023-07-30T07:40:39;3.25;;;2.88;;
47287;SDS011;33020;53.008;13.558;2023-07-30T07:43:06;3.58;;;2.85;;
47287;SDS011;33020;53.008;13.558;2023-07-30T07:45:34;4.13;;;3.05;;
47287;SDS011;33020;53.008;13.558;2023-07-30T07:48:00;4.18;;;3.70;;
47287;SDS011;33020;53.008;13.558;2023-07-30T07:50:27;4.70;;;3.92;;
47287;SDS011;33020;53.008;13.558;2023-07-30T07:52:54;5.15;;;3.92;;
47287;SDS011;33020;53.008;13.558;2023-07-30T07:55:20;4.35;;;3.47;;
47287;SDS011;33020;53.008;13.558;2023-07-30T07:57:47;4.30;;;3.90;;
47287;SDS011;33020;53.008;13.558;2023-07-30T08:00:14;3.67;;;3.38;;
47287;SDS011;33020;53.008;13.558;2023-07-30T08:02:41;4.07;;;3.67;;
47287;SDS011;33020;53.008;13.558;2023-07-30T08:05:07;4.65;;;3.78;;
47287;SDS011;33020;53.008;13.558;2023-07-30T08:07:34;4.22;;;3.15;;
47287;SDS011;33020;53.008;13.558;2023-07-30T08:10:01;3.90;;;3.50;;
47287;SDS011;33020;53.008;13.558;2023-07-30T08:12:28;4.25;;;3.85;;
47287;SDS011;33020;53.008;13.558;2023-07-30T08:14:54;5.82;;;3.88;;
47287;SDS011;33020;53.008;13.558;2023-07-30T08:17:22;4.00;;;3.55;;
47287;SDS011;33020;53.008;13.558;2023-07-30T08:19:49;4.10;;;3.70;;
47287;SDS011;33020;53.008;13.558;2023-07-30T08:22:17;5.25;;;3.88;;
47287;SDS011;33020;53.008;13.558;2023-07-30T08:24:44;4.15;;;3.40;;
47287;SDS011;33020;53.008;13.558;2023-07-30T08:27:10;4.53;;;3.70;;
47287;SDS011;33020;53.008;13.558;2023-07-30T08:29:37;3.35;;;3.05;;
47287;SDS011;33020;53.008;13.558;2023-07-30T08:32:05;3.10;;;2.80;;
47287;SDS011;33020;53.008;13.558;2023-07-30T08:34:32;5.07;;;3.20;;
47287;SDS011;33020;53.008;13.558;2023-07-30T08:37:00;3.75;;;2.80;;
47287;SDS011;33020;53.008;13.558;2023-07-30T08:39:27;3.08;;;2.78;;
47287;SDS011;33020;53.008;13.558;2023-07-30T08:41:54;3.42;;;2.60;;
47287;SDS011;33020;53.008;13.558;2023-07-30T08:44:20;4.30;;;2.60;;
47287;SDS011;33020;53.008;13.558;2023-07-30T08:46:47;3.72;;;3.00;;
47287;SDS011;33020;53.008;13.558;2023-07-30T08:49:14;3.00;;;2.70;;
47287;SDS011;33020;53.008;13.558;2023-07-30T08:51:40;3.47;;;2.70;;
47287;SDS011;33020;53.008;13.558;2023-07-30T08:54:09;4.97;;;2.50;;
47287;SDS011;33020;53.008;13.558;2023-07-30T08:56:37;2.55;;;2.30;;
47287;SDS011;33020;53.008;13.558;2023-07-30T08:59:04;3.72;;;2.22;;
47287;SDS011;33020;53.008;13.558;2023-07-30T09:01:36;3.60;;;2.65;;
47287;SDS011;33020;53.008;13.558;2023-07-30T09:04:05;3.05;;;2.03;;
47287;SDS011;33020;53.008;13.558;2023-07-30T09:06:32;8.85;;;2.58;;
47287;SDS011;33020;53.008;13.558;2023-07-30T09:08:59;3.45;;;2.42;;
47287;SDS011;33020;53.008;13.558;2023-07-30T09:11:26;3.55;;;2.90;;
47287;SDS011;33020;53.008;13.558;2023-07-30T09:13:56;5.10;;;2.42;;
47287;SDS011;33020;53.008;13.558;2023-07-30T09:16:24;3.75;;;2.33;;
47287;SDS011;33020;53.008;13.558;2023-07-30T09:18:52;4.90;;;2.15;;
47287;SDS011;33020;53.008;13.558;2023-07-30T09:21:29;2.60;;;2.40;;
47287;SDS011;33020;53.008;13.558;2023-07-30T09:24:00;2.80;;;2.50;;
47287;SDS011;33020;53.008;13.558;2023-07-30T09:26:45;2.88;;;2.30;;
47287;SDS011;33020;53.008;13.558;2023-07-30T09:29:12;4.32;;;2.63;;
47287;SDS011;33020;53.008;13.558;2023-07-30T09:31:46;3.03;;;2.25;;
47287;SDS011;33020;53.008;13.558;2023-07-30T09:34:18;4.32;;;2.72;;
47287;SDS011;33020;53.008;13.558;2023-07-30T09:36:46;3.38;;;2.40;;
47287;SDS011;33020;53.008;13.558;2023-07-30T09:39:17;3.67;;;2.70;;
47287;SDS011;33020;53.008;13.558;2023-07-30T09:41:46;3.63;;;2.17;;
47287;SDS011;33020;53.008;13.558;2023-07-30T09:44:13;5.97;;;2.60;;
47287;SDS011;33020;53.008;13.558;2023-07-30T09:46:47;3.30;;;2.50;;
47287;SDS011;33020;53.008;13.558;2023-07-30T09:49:15;3.83;;;2.60;;
47287;SDS011;33020;53.008;13.558;2023-07-30T09:51:42;3.40;;;2.55;;
47287;SDS011;33020;53.008;13.558;2023-07-30T09:54:10;2.92;;;2.20;;
47287;SDS011;33020;53.008;13.558;2023-07-30T09:56:38;3.17;;;2.33;;
47287;SDS011;33020;53.008;13.558;2023-07-30T09:59:06;4.05;;;2.67;;
47287;SDS011;33020;53.008;13.558;2023-07-30T10:01:46;2.95;;;2.05;;
47287;SDS011;33020;53.008;13.558;2023-07-30T10:04:18;3.67;;;2.58;;
47287;SDS011;33020;53.008;13.558;2023-07-30T10:06:47;2.83;;;2.22;;
47287;SDS011;33020;53.008;13.558;2023-07-30T10:09:21;2.70;;;2.08;;
47287;SDS011;33020;53.008;13.558;2023-07-30T10:11:50;4.07;;;2.30;;
47287;SDS011;33020;53.008;13.558;2023-07-30T10:14:21;3.47;;;2.42;;
47287;SDS011;33020;53.008;13.558;2023-07-30T10:16:53;3.72;;;2.53;;
47287;SDS011;33020;53.008;13.558;2023-07-30T10:19:27;3.92;;;2.55;;
47287;SDS011;33020;53.008;13.558;2023-07-30T10:24:26;4.40;;;2.70;;
47287;SDS011;33020;53.008;13.558;2023-07-30T10:26:53;3.03;;;2.00;;
47287;SDS011;33020;53.008;13.558;2023-07-30T10:29:24;4.15;;;2.35;;
47287;SDS011;33020;53.008;13.558;2023-07-30T10:31:54;5.90;;;2.80;;
47287;SDS011;33020;53.008;13.558;2023-07-30T10:34:26;3.33;;;2.50;;
47287;SDS011;33020;53.008;13.558;2023-07-30T10:36:57;4.53;;;2.58;;
47287;SDS011;33020;53.008;13.558;2023-07-30T10:39:27;3.95;;;2.35;;
47287;SDS011;33020;53.008;13.558;2023-07-30T10:41:55;4.15;;;2.30;;
47287;SDS011;33020;53.008;13.558;2023-07-30T10:44:33;4.15;;;2.05;;
47287;SDS011;33020;53.008;13.558;2023-07-30T10:47:03;4.88;;;2.55;;
47287;SDS011;33020;53.008;13.558;2023-07-30T10:49:35;4.68;;;2.55;;
47287;SDS011;33020;53.008;13.558;2023-07-30T10:52:03;3.38;;;2.33;;
47287;SDS011;33020;53.008;13.558;2023-07-30T10:54:33;4.10;;;2.40;;
47287;SDS011;33020;53.008;13.558;2023-07-30T10:57:01;4.45;;;2.67;;
47287;SDS011;33020;53.008;13.558;2023-07-30T10:59:33;2.78;;;2.22;;
47287;SDS011;33020;53.008;13.558;2023-07-30T11:02:03;5.30;;;2.70;;
47287;SDS011;33020;53.008;13.558;2023-07-30T11:04:33;4.35;;;2.60;;
47287;SDS011;33020;53.008;13.558;2023-07-30T11:07:02;2.38;;;2.00;;
47287;SDS011;33020;53.008;13.558;2023-07-30T11:09:37;3.20;;;2.17;;
47287;SDS011;33020;53.008;13.558;2023-07-30T11:12:08;3.38;;;2.50;;
47287;SDS011;33020;53.008;13.558;2023-07-30T11:14:35;3.20;;;2.60;;
47287;SDS011;33020;53.008;13.558;2023-07-30T11:17:02;3.95;;;2.22;;
47287;SDS011;33020;53.008;13.558;2023-07-30T11:19:32;3.58;;;2.40;;
47287;SDS011;33020;53.008;13.558;2023-07-30T11:22:00;2.80;;;2.10;;
47287;SDS011;33020;53.008;13.558;2023-07-30T11:24:36;3.78;;;2.17;;
47287;SDS011;33020;53.008;13.558;2023-07-30T11:27:03;3.53;;;2.35;;
47287;SDS011;33020;53.008;13.558;2023-07-30T11:29:30;3.80;;;2.30;;
47287;SDS011;33020;53.008;13.558;2023-07-30T11:31:57;3.75;;;2.08;;
47287;SDS011;33020;53.008;13.558;2023-07-30T11:34:30;2.72;;;2.40;;
47287;SDS011;33020;53.008;13.558;2023-07-30T11:37:01;3.45;;;2.60;;
47287;SDS011;33020;53.008;13.558;2023-07-30T11:39:28;3.70;;;2.17;;
47287;SDS011;33020;53.008;13.558;2023-07-30T11:41:55;3.17;;;2.40;;
47287;SDS011;33020;53.008;13.558;2023-07-30T11:44:31;2.92;;;2.10;;
47287;SDS011;33020;53.008;13.558;2023-07-30T11:47:00;4.20;;;2.20;;
47287;SDS011;33020;53.008;13.558;2023-07-30T11:49:26;3.25;;;2.60;;
47287;SDS011;33020;53.008;13.558;2023-07-30T11:52:09;3.72;;;2.35;;
47287;SDS011;33020;53.008;13.558;2023-07-30T11:54:37;3.53;;;2.35;;
47287;SDS011;33020;53.008;13.558;2023-07-30T11:57:04;3.80;;;2.50;;
47287;SDS011;33020;53.008;13.558;2023-07-30T11:59:31;3.00;;;2.35;;
47287;SDS011;33020;53.008;13.558;2023-07-30T12:01:58;2.38;;;1.98;;
47287;SDS011;33020;53.008;13.558;2023-07-30T12:04:25;3.00;;;2.00;;
47287;SDS011;33020;53.008;13.558;2023-07-30T12:06:57;2.70;;;2.00;;
47287;SDS011;33020;53.008;13.558;2023-07-30T12:09:27;2.75;;;2.42;;
47287;SDS011;33020;53.008;13.558;2023-07-30T12:12:00;3.85;;;2.30;;
47287;SDS011;33020;53.008;13.558;2023-07-30T12:14:28;3.72;;;2.50;;
47287;SDS011;33020;53.008;13.558;2023-07-30T12:16:58;2.88;;;2.15;;
47287;SDS011;33020;53.008;13.558;2023-07-30T12:19:25;2.88;;;2.15;;
47287;SDS011;33020;53.008;13.558;2023-07-30T12:21:53;2.65;;;2.13;;
47287;SDS011;33020;53.008;13.558;2023-07-30T12:24:19;3.28;;;2.13;;
47287;SDS011;33020;53.008;13.558;2023-07-30T12:26:48;2.60;;;2.05;;
47287;SDS011;33020;53.008;13.558;2023-07-30T12:29:16;4.63;;;2.47;;
47287;SDS011;33020;53.008;13.558;2023-07-30T12:31:42;2.35;;;2.00;;
47287;SDS011;33020;53.008;13.558;2023-07-30T12:34:10;6.07;;;2.55;;
47287;SDS011;33020;53.008;13.558;2023-07-30T12:36:36;3.15;;;2.13;;
47287;SDS011;33020;53.008;13.558;2023-07-30T12:39:03;4.18;;;2.10;;
47287;SDS011;33020;53.008;13.558;2023-07-30T12:41:30;3.55;;;2.20;;
47287;SDS011;33020;53.008;13.558;2023-07-30T12:43:56;4.35;;;2.20;;
47287;SDS011;33020;53.008;13.558;2023-07-30T12:46:24;3.72;;;2.17;;
47287;SDS011;33020;53.008;13.558;2023-07-30T12:48:51;4.28;;;2.47;;
47287;SDS011;33020;53.008;13.558;2023-07-30T12:51:18;2.63;;;2.17;;
47287;SDS011;33020;53.008;13.558;2023-07-30T12:53:45;3.13;;;2.15;;
47287;SDS011;33020;53.008;13.558;2023-07-30T12:56:11;3.88;;;2.08;;
47287;SDS011;33020;53.008;13.558;2023-07-30T12:58:39;4.07;;;2.08;;
47287;SDS011;33020;53.008;13.558;2023-07-30T13:01:06;3.38;;;2.25;;
47287;SDS011;33020;53.008;13.558;2023-07-30T13:03:33;4.20;;;1.95;;
47287;SDS011;33020;53.008;13.558;2023-07-30T13:06:00;3.72;;;2.00;;
47287;SDS011;33020;53.008;13.558;2023-07-30T13:08:27;3.97;;;2.30;;
47287;SDS011;33020;53.008;13.558;2023-07-30T13:10:54;2.67;;;2.35;;
47287;SDS011;33020;53.008;13.558;2023-07-30T13:13:21;5.40;;;2.20;;
47287;SDS011;33020;53.008;13.558;2023-07-30T13:15:50;3.17;;;1.95;;
47287;SDS011;33020;53.008;13.558;2023-07-30T13:18:16;2.30;;;1.80;;
47287;SDS011;33020;53.008;13.558;2023-07-30T13:20:51;3.72;;;2.53;;
47287;SDS011;33020;53.008;13.558;2023-07-30T13:23:17;2.47;;;2.03;;
47287;SDS011;33020;53.008;13.558;2023-07-30T13:25:44;3.13;;;2.20;;
47287;SDS011;33020;53.008;13.558;2023-07-30T13:28:11;3.20;;;2.30;;
47287;SDS011;33020;53.008;13.558;2023-07-30T13:30:38;4.93;;;2.70;;
47287;SDS011;33020;53.008;13.558;2023-07-30T13:33:05;3.83;;;2.45;;
47287;SDS011;33020;53.008;13.558;2023-07-30T13:35:31;4.53;;;2.20;;
47287;SDS011;33020;53.008;13.558;2023-07-30T13:38:00;3.75;;;1.80;;
47287;SDS011;33020;53.008;13.558;2023-07-30T13:40:27;4.78;;;2.20;;
47287;SDS011;33020;53.008;13.558;2023-07-30T13:42:54;5.00;;;2.38;;
47287;SDS011;33020;53.008;13.558;2023-07-30T13:45:20;3.45;;;2.50;;
47287;SDS011;33020;53.008;13.558;2023-07-30T13:47:57;3.83;;;2.10;;
47287;SDS011;33020;53.008;13.558;2023-07-30T13:50:26;3.65;;;2.40;;
47287;SDS011;33020;53.008;13.558;2023-07-30T13:52:53;7.00;;;2.40;;
47287;SDS011;33020;53.008;13.558;2023-07-30T13:55:20;4.10;;;2.50;;
47287;SDS011;33020;53.008;13.558;2023-07-30T13:57:48;2.92;;;2.13;;
47287;SDS011;33020;53.008;13.558;2023-07-30T14:00:14;5.65;;;2.05;;
47287;SDS011;33020;53.008;13.558;2023-07-30T14:02:41;4.70;;;2.35;;
47287;SDS011;33020;53.008;13.558;2023-07-30T14:05:10;4.13;;;2.45;;
47287;SDS011;33020;53.008;13.558;2023-07-30T14:07:36;2.95;;;1.92;;
47287;SDS011;33020;53.008;13.558;2023-07-30T14:10:03;6.60;;;2.45;;
47287;SDS011;33020;53.008;13.558;2023-07-30T14:12:30;4.15;;;2.25;;
47287;SDS011;33020;53.008;13.558;2023-07-30T14:14:57;7.22;;;2.53;;
47287;SDS011;33020;53.008;13.558;2023-07-30T14:17:28;4.72;;;2.75;;
47287;SDS011;33020;53.008;13.558;2023-07-30T14:19:55;6.63;;;2.90;;
47287;SDS011;33020;53.008;13.558;2023-07-30T14:22:22;4.43;;;2.53;;
47287;SDS011;33020;53.008;13.558;2023-07-30T14:24:48;5.30;;;3.05;;
47287;SDS011;33020;53.008;13.558;2023-07-30T14:27:18;4.30;;;2.53;;
47287;SDS011;33020;53.008;13.558;2023-07-30T14:29:44;4.32;;;2.67;;
47287;SDS011;33020;53.008;13.558;2023-07-30T14:32:11;5.10;;;2.85;;
47287;SDS011;33020;53.008;13.558;2023-07-30T14:34:38;4.35;;;2.80;;
47287;SDS011;33020;53.008;13.558;2023-07-30T14:37:05;2.95;;;2.33;;